Bookmark and Share
Track history (hours):
 

Edzard Schulte

Last reported at 2014-Apr-07 09:09 UTC. Time now 2014-Apr-16 10:44 UTC.
Position N 22°10' E 114°08'.
Warning: this ship's position is 9 days out of date.

Length 145 m; draft 6.2 m.

Type: Tanker. MMSI: 235076245.

NotesDate/timePositionNaut miles runAvg speedWind from/ knotsBaromVisibWave heightAir tempDewpointWater temp
2014-Apr-07 09:09N 22°10' E 114°08'0 0.0
2014-Apr-07 05:04N 22°10' E 114°08'2 4.0
2014-Apr-07 04:33N 22°09' E 114°06'7 7.5
2014-Apr-07 03:33N 22°08' E 113°58'7 7.3
2014-Apr-07 02:32N 22°06' E 113°50'8 8.1
2014-Apr-07 01:33N 22°13' E 113°48'1110.9
2014-Apr-07 00:33N 22°24' E 113°46'1312.7
2014-Apr-06 23:29N 22°37' E 113°42'1010.1
2014-Apr-06 22:33N 22°46' E 113°38'0 0.0
2014-Apr-06 20:08N 22°46' E 113°38'0 0.0
2014-Apr-06 05:14N 22°46' E 113°38'1 2.1
2014-Apr-06 04:33N 22°47' E 113°37'4 0.1
2014-Apr-04 02:33N 22°50' E 113°34'12 9.9
2014-Apr-04 01:22N 22°40' E 113°41'911.6
2014-Apr-04 00:33N 22°31' E 113°44'1211.6
2014-Apr-03 23:33N 22°20' E 113°48'9 8.7
2014-Apr-03 22:33N 22°11' E 113°47'4 4.4
2014-Apr-03 21:33N 22°07' E 113°48'3 2.9
2014-Apr-03 20:33N 22°05' E 113°50'4 4.3
2014-Apr-03 19:33N 22°01' E 113°52'  

Dump ship's entire track history

sailing weather and tide predictions

Edzard Schulte — 2CVX9 — position and weather